sensor_id;sensor_type;location;lat;lon;timestamp;P1;durP1;ratioP1;P2;durP2;ratioP2
12275;SDS011;6200;48.144;11.424;2023-03-03T00:00:21;0.40;;;0.40;;
12275;SDS011;6200;48.144;11.424;2023-03-03T00:05:43;0.40;;;0.40;;
12275;SDS011;6200;48.144;11.424;2023-03-03T00:08:09;0.40;;;0.40;;
12275;SDS011;6200;48.144;11.424;2023-03-03T00:10:35;0.40;;;0.40;;
12275;SDS011;6200;48.144;11.424;2023-03-03T00:13:01;0.40;;;0.40;;
12275;SDS011;6200;48.144;11.424;2023-03-03T00:15:28;0.53;;;0.53;;
12275;SDS011;6200;48.144;11.424;2023-03-03T00:17:54;0.50;;;0.50;;
12275;SDS011;6200;48.144;11.424;2023-03-03T00:23:05;0.50;;;0.50;;
12275;SDS011;6200;48.144;11.424;2023-03-03T00:25:42;0.50;;;0.50;;
12275;SDS011;6200;48.144;11.424;2023-03-03T00:28:18;0.50;;;0.50;;
12275;SDS011;6200;48.144;11.424;2023-03-03T00:31:18;0.50;;;0.50;;
12275;SDS011;6200;48.144;11.424;2023-03-03T00:33:49;0.40;;;0.40;;
12275;SDS011;6200;48.144;11.424;2023-03-03T00:36:24;0.53;;;0.53;;
12275;SDS011;6200;48.144;11.424;2023-03-03T00:39:10;0.50;;;0.50;;
12275;SDS011;6200;48.144;11.424;2023-03-03T00:41:57;0.50;;;0.50;;
12275;SDS011;6200;48.144;11.424;2023-03-03T00:47:02;0.60;;;0.60;;
12275;SDS011;6200;48.144;11.424;2023-03-03T00:49:41;0.50;;;0.50;;
12275;SDS011;6200;48.144;11.424;2023-03-03T00:52:15;0.53;;;0.53;;
12275;SDS011;6200;48.144;11.424;2023-03-03T00:54:42;0.50;;;0.50;;
12275;SDS011;6200;48.144;11.424;2023-03-03T00:57:08;0.50;;;0.50;;
12275;SDS011;6200;48.144;11.424;2023-03-03T00:59:36;0.53;;;0.53;;
12275;SDS011;6200;48.144;11.424;2023-03-03T01:02:02;0.40;;;0.40;;
12275;SDS011;6200;48.144;11.424;2023-03-03T01:04:27;0.50;;;0.50;;
12275;SDS011;6200;48.144;11.424;2023-03-03T01:06:53;0.50;;;0.50;;
12275;SDS011;6200;48.144;11.424;2023-03-03T01:09:18;0.60;;;0.60;;
12275;SDS011;6200;48.144;11.424;2023-03-03T01:11:44;0.50;;;0.50;;
12275;SDS011;6200;48.144;11.424;2023-03-03T01:14:10;0.50;;;0.50;;
12275;SDS011;6200;48.144;11.424;2023-03-03T01:16:35;0.50;;;0.50;;
12275;SDS011;6200;48.144;11.424;2023-03-03T01:19:01;0.60;;;0.60;;
12275;SDS011;6200;48.144;11.424;2023-03-03T01:21:26;0.50;;;0.50;;
12275;SDS011;6200;48.144;11.424;2023-03-03T01:23:52;0.50;;;0.50;;
12275;SDS011;6200;48.144;11.424;2023-03-03T01:26:17;0.50;;;0.50;;
12275;SDS011;6200;48.144;11.424;2023-03-03T01:28:43;0.50;;;0.50;;
12275;SDS011;6200;48.144;11.424;2023-03-03T01:31:08;0.53;;;0.53;;
12275;SDS011;6200;48.144;11.424;2023-03-03T01:33:34;0.50;;;0.50;;
12275;SDS011;6200;48.144;11.424;2023-03-03T01:36:00;0.47;;;0.47;;
12275;SDS011;6200;48.144;11.424;2023-03-03T01:38:26;0.50;;;0.50;;
12275;SDS011;6200;48.144;11.424;2023-03-03T01:40:54;0.40;;;0.40;;
12275;SDS011;6200;48.144;11.424;2023-03-03T01:43:21;0.60;;;0.60;;
12275;SDS011;6200;48.144;11.424;2023-03-03T01:48:23;0.50;;;0.50;;
12275;SDS011;6200;48.144;11.424;2023-03-03T01:50:56;0.50;;;0.50;;
12275;SDS011;6200;48.144;11.424;2023-03-03T01:53:55;0.50;;;0.50;;
12275;SDS011;6200;48.144;11.424;2023-03-03T01:56:23;0.60;;;0.60;;
12275;SDS011;6200;48.144;11.424;2023-03-03T01:59:36;0.50;;;0.50;;
12275;SDS011;6200;48.144;11.424;2023-03-03T02:01:46;0.50;;;0.50;;
12275;SDS011;6200;48.144;11.424;2023-03-03T02:04:12;0.40;;;0.40;;
12275;SDS011;6200;48.144;11.424;2023-03-03T02:06:39;0.50;;;0.50;;
12275;SDS011;6200;48.144;11.424;2023-03-03T02:09:13;0.50;;;0.50;;
12275;SDS011;6200;48.144;11.424;2023-03-03T02:12:02;0.53;;;0.53;;
12275;SDS011;6200;48.144;11.424;2023-03-03T02:14:31;0.50;;;0.50;;
12275;SDS011;6200;48.144;11.424;2023-03-03T02:16:56;0.40;;;0.40;;
12275;SDS011;6200;48.144;11.424;2023-03-03T02:22:15;0.60;;;0.60;;
12275;SDS011;6200;48.144;11.424;2023-03-03T02:24:47;0.47;;;0.47;;
12275;SDS011;6200;48.144;11.424;2023-03-03T02:27:21;0.50;;;0.50;;
12275;SDS011;6200;48.144;11.424;2023-03-03T02:29:47;0.50;;;0.50;;
12275;SDS011;6200;48.144;11.424;2023-03-03T02:32:12;0.40;;;0.40;;
12275;SDS011;6200;48.144;11.424;2023-03-03T02:34:45;0.50;;;0.50;;
12275;SDS011;6200;48.144;11.424;2023-03-03T02:37:12;0.50;;;0.50;;
12275;SDS011;6200;48.144;11.424;2023-03-03T02:39:38;0.60;;;0.60;;
12275;SDS011;6200;48.144;11.424;2023-03-03T02:44:46;0.50;;;0.50;;
12275;SDS011;6200;48.144;11.424;2023-03-03T02:47:12;0.47;;;0.47;;
12275;SDS011;6200;48.144;11.424;2023-03-03T02:49:37;0.50;;;0.50;;
12275;SDS011;6200;48.144;11.424;2023-03-03T02:52:04;0.47;;;0.47;;
12275;SDS011;6200;48.144;11.424;2023-03-03T02:54:33;0.43;;;0.43;;
12275;SDS011;6200;48.144;11.424;2023-03-03T02:57:00;0.57;;;0.57;;
12275;SDS011;6200;48.144;11.424;2023-03-03T02:59:26;0.50;;;0.50;;
12275;SDS011;6200;48.144;11.424;2023-03-03T03:01:52;0.50;;;0.50;;
12275;SDS011;6200;48.144;11.424;2023-03-03T03:04:20;0.50;;;0.50;;
12275;SDS011;6200;48.144;11.424;2023-03-03T03:06:47;0.50;;;0.50;;
12275;SDS011;6200;48.144;11.424;2023-03-03T03:09:13;0.50;;;0.50;;
12275;SDS011;6200;48.144;11.424;2023-03-03T03:11:40;0.60;;;0.60;;
12275;SDS011;6200;48.144;11.424;2023-03-03T03:14:07;0.40;;;0.40;;
12275;SDS011;6200;48.144;11.424;2023-03-03T03:16:34;0.50;;;0.50;;
12275;SDS011;6200;48.144;11.424;2023-03-03T03:19:00;0.47;;;0.47;;
12275;SDS011;6200;48.144;11.424;2023-03-03T03:21:26;0.47;;;0.47;;
12275;SDS011;6200;48.144;11.424;2023-03-03T03:23:51;0.50;;;0.50;;
12275;SDS011;6200;48.144;11.424;2023-03-03T03:26:17;0.50;;;0.50;;
12275;SDS011;6200;48.144;11.424;2023-03-03T03:28:45;0.40;;;0.40;;
12275;SDS011;6200;48.144;11.424;2023-03-03T03:31:10;0.50;;;0.50;;
12275;SDS011;6200;48.144;11.424;2023-03-03T03:33:36;0.50;;;0.50;;
12275;SDS011;6200;48.144;11.424;2023-03-03T03:36:02;0.50;;;0.50;;
12275;SDS011;6200;48.144;11.424;2023-03-03T03:38:28;0.50;;;0.50;;
12275;SDS011;6200;48.144;11.424;2023-03-03T03:40:55;0.50;;;0.50;;
12275;SDS011;6200;48.144;11.424;2023-03-03T03:43:21;0.53;;;0.53;;
12275;SDS011;6200;48.144;11.424;2023-03-03T03:45:47;0.50;;;0.50;;
12275;SDS011;6200;48.144;11.424;2023-03-03T03:48:12;0.50;;;0.50;;
12275;SDS011;6200;48.144;11.424;2023-03-03T03:50:39;0.40;;;0.40;;
12275;SDS011;6200;48.144;11.424;2023-03-03T03:53:05;0.50;;;0.50;;
12275;SDS011;6200;48.144;11.424;2023-03-03T03:55:31;0.50;;;0.50;;
12275;SDS011;6200;48.144;11.424;2023-03-03T03:57:57;0.50;;;0.50;;
12275;SDS011;6200;48.144;11.424;2023-03-03T04:00:23;0.50;;;0.50;;
12275;SDS011;6200;48.144;11.424;2023-03-03T04:02:49;0.50;;;0.50;;
12275;SDS011;6200;48.144;11.424;2023-03-03T04:05:14;0.57;;;0.57;;
12275;SDS011;6200;48.144;11.424;2023-03-03T04:07:40;0.60;;;0.60;;
12275;SDS011;6200;48.144;11.424;2023-03-03T04:10:06;0.60;;;0.60;;
12275;SDS011;6200;48.144;11.424;2023-03-03T04:12:32;0.50;;;0.50;;
12275;SDS011;6200;48.144;11.424;2023-03-03T04:15:03;0.43;;;0.43;;
12275;SDS011;6200;48.144;11.424;2023-03-03T04:17:29;0.50;;;0.50;;
12275;SDS011;6200;48.144;11.424;2023-03-03T04:19:55;0.50;;;0.50;;
12275;SDS011;6200;48.144;11.424;2023-03-03T04:22:20;0.40;;;0.40;;
12275;SDS011;6200;48.144;11.424;2023-03-03T04:24:45;0.50;;;0.50;;
12275;SDS011;6200;48.144;11.424;2023-03-03T04:27:12;0.67;;;0.67;;
12275;SDS011;6200;48.144;11.424;2023-03-03T04:29:39;0.40;;;0.40;;
12275;SDS011;6200;48.144;11.424;2023-03-03T04:32:05;0.50;;;0.50;;
12275;SDS011;6200;48.144;11.424;2023-03-03T04:34:31;0.50;;;0.50;;
12275;SDS011;6200;48.144;11.424;2023-03-03T04:36:56;0.50;;;0.50;;
12275;SDS011;6200;48.144;11.424;2023-03-03T04:39:22;0.50;;;0.50;;
12275;SDS011;6200;48.144;11.424;2023-03-03T04:41:47;0.50;;;0.50;;
12275;SDS011;6200;48.144;11.424;2023-03-03T04:44:13;0.40;;;0.40;;
12275;SDS011;6200;48.144;11.424;2023-03-03T04:46:38;0.50;;;0.50;;
12275;SDS011;6200;48.144;11.424;2023-03-03T04:49:04;0.40;;;0.40;;
12275;SDS011;6200;48.144;11.424;2023-03-03T04:51:31;0.57;;;0.57;;
12275;SDS011;6200;48.144;11.424;2023-03-03T04:53:57;0.60;;;0.60;;
12275;SDS011;6200;48.144;11.424;2023-03-03T04:56:22;0.50;;;0.50;;
12275;SDS011;6200;48.144;11.424;2023-03-03T04:58:48;0.50;;;0.50;;
12275;SDS011;6200;48.144;11.424;2023-03-03T05:01:13;0.50;;;0.50;;
12275;SDS011;6200;48.144;11.424;2023-03-03T05:03:39;0.60;;;0.60;;
12275;SDS011;6200;48.144;11.424;2023-03-03T05:06:05;0.53;;;0.53;;
12275;SDS011;6200;48.144;11.424;2023-03-03T05:08:31;0.40;;;0.40;;
12275;SDS011;6200;48.144;11.424;2023-03-03T05:10:56;0.50;;;0.50;;
12275;SDS011;6200;48.144;11.424;2023-03-03T05:13:24;0.60;;;0.60;;
12275;SDS011;6200;48.144;11.424;2023-03-03T05:15:51;0.50;;;0.50;;
12275;SDS011;6200;48.144;11.424;2023-03-03T05:18:19;0.43;;;0.43;;
12275;SDS011;6200;48.144;11.424;2023-03-03T05:20:45;0.50;;;0.50;;
12275;SDS011;6200;48.144;11.424;2023-03-03T05:23:11;0.50;;;0.50;;
12275;SDS011;6200;48.144;11.424;2023-03-03T05:25:36;0.50;;;0.50;;
12275;SDS011;6200;48.144;11.424;2023-03-03T05:28:05;0.50;;;0.50;;
12275;SDS011;6200;48.144;11.424;2023-03-03T05:30:30;0.50;;;0.50;;
12275;SDS011;6200;48.144;11.424;2023-03-03T05:32:56;0.50;;;0.50;;
12275;SDS011;6200;48.144;11.424;2023-03-03T05:35:23;0.43;;;0.43;;
12275;SDS011;6200;48.144;11.424;2023-03-03T05:37:49;0.40;;;0.40;;
12275;SDS011;6200;48.144;11.424;2023-03-03T05:40:14;0.50;;;0.50;;
12275;SDS011;6200;48.144;11.424;2023-03-03T05:42:40;0.50;;;0.50;;
12275;SDS011;6200;48.144;11.424;2023-03-03T05:45:06;0.40;;;0.40;;
12275;SDS011;6200;48.144;11.424;2023-03-03T05:47:32;0.50;;;0.50;;
12275;SDS011;6200;48.144;11.424;2023-03-03T05:49:57;0.43;;;0.43;;
12275;SDS011;6200;48.144;11.424;2023-03-03T05:52:24;0.50;;;0.50;;
12275;SDS011;6200;48.144;11.424;2023-03-03T05:54:50;0.50;;;0.50;;
12275;SDS011;6200;48.144;11.424;2023-03-03T05:57:15;0.40;;;0.40;;
12275;SDS011;6200;48.144;11.424;2023-03-03T05:59:40;0.43;;;0.43;;
12275;SDS011;6200;48.144;11.424;2023-03-03T06:02:06;0.40;;;0.40;;
12275;SDS011;6200;48.144;11.424;2023-03-03T06:04:32;0.50;;;0.50;;
12275;SDS011;6200;48.144;11.424;2023-03-03T06:06:57;0.50;;;0.50;;
12275;SDS011;6200;48.144;11.424;2023-03-03T06:09:23;0.40;;;0.40;;
12275;SDS011;6200;48.144;11.424;2023-03-03T06:11:50;0.40;;;0.40;;
12275;SDS011;6200;48.144;11.424;2023-03-03T06:14:17;0.50;;;0.50;;
12275;SDS011;6200;48.144;11.424;2023-03-03T06:16:44;0.40;;;0.40;;
12275;SDS011;6200;48.144;11.424;2023-03-03T06:19:10;0.50;;;0.50;;
12275;SDS011;6200;48.144;11.424;2023-03-03T06:21:36;0.40;;;0.40;;
12275;SDS011;6200;48.144;11.424;2023-03-03T06:24:01;0.50;;;0.50;;
12275;SDS011;6200;48.144;11.424;2023-03-03T06:26:27;0.40;;;0.40;;
12275;SDS011;6200;48.144;11.424;2023-03-03T06:28:52;0.40;;;0.40;;
12275;SDS011;6200;48.144;11.424;2023-03-03T06:31:19;0.40;;;0.40;;
12275;SDS011;6200;48.144;11.424;2023-03-03T06:33:45;0.40;;;0.40;;
12275;SDS011;6200;48.144;11.424;2023-03-03T06:36:10;0.40;;;0.40;;
12275;SDS011;6200;48.144;11.424;2023-03-03T06:38:36;0.60;;;0.60;;
12275;SDS011;6200;48.144;11.424;2023-03-03T06:41:02;0.50;;;0.50;;
12275;SDS011;6200;48.144;11.424;2023-03-03T06:43:31;0.50;;;0.50;;
12275;SDS011;6200;48.144;11.424;2023-03-03T06:46:00;0.53;;;0.53;;
12275;SDS011;6200;48.144;11.424;2023-03-03T06:48:26;0.53;;;0.53;;
12275;SDS011;6200;48.144;11.424;2023-03-03T06:50:51;0.50;;;0.50;;
12275;SDS011;6200;48.144;11.424;2023-03-03T06:53:17;0.40;;;0.40;;
12275;SDS011;6200;48.144;11.424;2023-03-03T06:55:43;0.50;;;0.50;;
12275;SDS011;6200;48.144;11.424;2023-03-03T06:58:10;0.47;;;0.47;;
12275;SDS011;6200;48.144;11.424;2023-03-03T07:00:41;0.50;;;0.50;;
12275;SDS011;6200;48.144;11.424;2023-03-03T07:03:16;0.40;;;0.40;;
12275;SDS011;6200;48.144;11.424;2023-03-03T07:05:43;0.50;;;0.50;;
12275;SDS011;6200;48.144;11.424;2023-03-03T07:08:16;0.40;;;0.40;;
12275;SDS011;6200;48.144;11.424;2023-03-03T07:10:44;0.50;;;0.50;;
12275;SDS011;6200;48.144;11.424;2023-03-03T07:15:38;0.40;;;0.40;;
12275;SDS011;6200;48.144;11.424;2023-03-03T07:18:04;0.50;;;0.50;;
12275;SDS011;6200;48.144;11.424;2023-03-03T07:20:44;0.40;;;0.40;;
12275;SDS011;6200;48.144;11.424;2023-03-03T07:23:14;0.50;;;0.50;;
12275;SDS011;6200;48.144;11.424;2023-03-03T07:25:47;0.40;;;0.40;;
12275;SDS011;6200;48.144;11.424;2023-03-03T07:28:26;0.50;;;0.50;;
12275;SDS011;6200;48.144;11.424;2023-03-03T07:30:53;0.40;;;0.40;;
12275;SDS011;6200;48.144;11.424;2023-03-03T07:35:53;0.50;;;0.50;;
12275;SDS011;6200;48.144;11.424;2023-03-03T07:40:53;0.40;;;0.40;;
12275;SDS011;6200;48.144;11.424;2023-03-03T07:43:36;0.50;;;0.50;;
12275;SDS011;6200;48.144;11.424;2023-03-03T07:48:36;0.50;;;0.50;;
12275;SDS011;6200;48.144;11.424;2023-03-03T07:51:10;0.43;;;0.43;;
12275;SDS011;6200;48.144;11.424;2023-03-03T07:56:52;0.50;;;0.50;;
12275;SDS011;6200;48.144;11.424;2023-03-03T07:59:23;0.40;;;0.40;;
12275;SDS011;6200;48.144;11.424;2023-03-03T08:01:50;0.40;;;0.40;;
12275;SDS011;6200;48.144;11.424;2023-03-03T08:04:35;0.57;;;0.57;;
12275;SDS011;6200;48.144;11.424;2023-03-03T08:07:10;0.57;;;0.57;;
12275;SDS011;6200;48.144;11.424;2023-03-03T08:12:18;0.33;;;0.33;;
12275;SDS011;6200;48.144;11.424;2023-03-03T08:15:11;0.40;;;0.40;;
12275;SDS011;6200;48.144;11.424;2023-03-03T08:17:44;0.40;;;0.40;;
12275;SDS011;6200;48.144;11.424;2023-03-03T08:20:55;0.40;;;0.40;;
12275;SDS011;6200;48.144;11.424;2023-03-03T08:22:58;0.30;;;0.30;;
12275;SDS011;6200;48.144;11.424;2023-03-03T08:25:24;0.53;;;0.53;;
12275;SDS011;6200;48.144;11.424;2023-03-03T08:27:49;0.40;;;0.40;;
12275;SDS011;6200;48.144;11.424;2023-03-03T08:30:15;0.50;;;0.50;;
12275;SDS011;6200;48.144;11.424;2023-03-03T08:32:41;0.50;;;0.50;;
12275;SDS011;6200;48.144;11.424;2023-03-03T08:35:06;0.40;;;0.40;;
12275;SDS011;6200;48.144;11.424;2023-03-03T08:37:32;0.40;;;0.40;;
12275;SDS011;6200;48.144;11.424;2023-03-03T08:39:57;0.50;;;0.50;;
12275;SDS011;6200;48.144;11.424;2023-03-03T08:42:23;0.40;;;0.40;;
12275;SDS011;6200;48.144;11.424;2023-03-03T08:44:48;0.50;;;0.50;;
12275;SDS011;6200;48.144;11.424;2023-03-03T08:47:14;0.40;;;0.40;;
12275;SDS011;6200;48.144;11.424;2023-03-03T08:49:39;0.33;;;0.33;;
12275;SDS011;6200;48.144;11.424;2023-03-03T08:52:05;0.50;;;0.50;;
12275;SDS011;6200;48.144;11.424;2023-03-03T08:54:30;0.33;;;0.33;;
12275;SDS011;6200;48.144;11.424;2023-03-03T08:56:56;0.60;;;0.60;;
12275;SDS011;6200;48.144;11.424;2023-03-03T08:59:21;0.40;;;0.40;;
12275;SDS011;6200;48.144;11.424;2023-03-03T09:01:47;0.40;;;0.40;;
12275;SDS011;6200;48.144;11.424;2023-03-03T09:04:12;0.57;;;0.57;;
12275;SDS011;6200;48.144;11.424;2023-03-03T09:06:38;0.33;;;0.33;;
12275;SDS011;6200;48.144;11.424;2023-03-03T09:09:03;0.40;;;0.40;;
12275;SDS011;6200;48.144;11.424;2023-03-03T09:11:29;0.47;;;0.47;;
12275;SDS011;6200;48.144;11.424;2023-03-03T09:13:58;0.30;;;0.30;;
12275;SDS011;6200;48.144;11.424;2023-03-03T09:16:33;0.50;;;0.50;;
12275;SDS011;6200;48.144;11.424;2023-03-03T09:19:15;0.50;;;0.50;;
12275;SDS011;6200;48.144;11.424;2023-03-03T09:21:47;0.40;;;0.40;;
12275;SDS011;6200;48.144;11.424;2023-03-03T09:24:23;0.40;;;0.40;;
12275;SDS011;6200;48.144;11.424;2023-03-03T09:26:50;0.30;;;0.30;;
12275;SDS011;6200;48.144;11.424;2023-03-03T09:29:26;0.30;;;0.30;;
12275;SDS011;6200;48.144;11.424;2023-03-03T09:31:57;0.40;;;0.40;;
12275;SDS011;6200;48.144;11.424;2023-03-03T09:39:48;0.30;;;0.30;;
12275;SDS011;6200;48.144;11.424;2023-03-03T09:51:13;0.30;;;0.30;;
12275;SDS011;6200;48.144;11.424;2023-03-03T09:56:33;0.37;;;0.37;;
12275;SDS011;6200;48.144;11.424;2023-03-03T10:02:21;0.30;;;0.30;;
12275;SDS011;6200;48.144;11.424;2023-03-03T10:05:10;0.33;;;0.33;;
12275;SDS011;6200;48.144;11.424;2023-03-03T10:13:40;0.30;;;0.30;;
12275;SDS011;6200;48.144;11.424;2023-03-03T10:18:57;0.30;;;0.30;;
12275;SDS011;6200;48.144;11.424;2023-03-03T10:21:38;0.30;;;0.30;;
12275;SDS011;6200;48.144;11.424;2023-03-03T10:27:18;0.50;;;0.50;;
12275;SDS011;6200;48.144;11.424;2023-03-03T10:30:02;0.33;;;0.33;;
12275;SDS011;6200;48.144;11.424;2023-03-03T10:32:56;0.30;;;0.30;;
12275;SDS011;6200;48.144;11.424;2023-03-03T10:46:53;0.30;;;0.30;;
12275;SDS011;6200;48.144;11.424;2023-03-03T10:55:13;0.40;;;0.40;;
12275;SDS011;6200;48.144;11.424;2023-03-03T11:00:39;0.40;;;0.40;;
12275;SDS011;6200;48.144;11.424;2023-03-03T11:06:33;0.40;;;0.40;;
12275;SDS011;6200;48.144;11.424;2023-03-03T11:09:33;0.30;;;0.30;;
12275;SDS011;6200;48.144;11.424;2023-03-03T11:15:03;0.37;;;0.37;;
12275;SDS011;6200;48.144;11.424;2023-03-03T11:26:10;0.40;;;0.40;;
12275;SDS011;6200;48.144;11.424;2023-03-03T11:29:00;0.20;;;0.20;;
12275;SDS011;6200;48.144;11.424;2023-03-03T11:31:46;0.30;;;0.30;;
12275;SDS011;6200;48.144;11.424;2023-03-03T11:36:56;0.30;;;0.30;;
12275;SDS011;6200;48.144;11.424;2023-03-03T11:39:32;0.40;;;0.40;;
12275;SDS011;6200;48.144;11.424;2023-03-03T11:44:58;0.30;;;0.30;;
12275;SDS011;6200;48.144;11.424;2023-03-03T11:50:26;0.30;;;0.30;;
12275;SDS011;6200;48.144;11.424;2023-03-03T11:55:41;0.30;;;0.30;;
12275;SDS011;6200;48.144;11.424;2023-03-03T11:58:21;0.30;;;0.30;;
12275;SDS011;6200;48.144;11.424;2023-03-03T12:03:33;0.30;;;0.30;;
12275;SDS011;6200;48.144;11.424;2023-03-03T12:06:20;0.30;;;0.30;;
12275;SDS011;6200;48.144;11.424;2023-03-03T12:17:04;0.33;;;0.33;;
12275;SDS011;6200;48.144;11.424;2023-03-03T12:22:31;0.30;;;0.30;;
12275;SDS011;6200;48.144;11.424;2023-03-03T12:25:19;0.30;;;0.30;;
12275;SDS011;6200;48.144;11.424;2023-03-03T12:36:26;0.20;;;0.20;;
12275;SDS011;6200;48.144;11.424;2023-03-03T12:41:57;0.20;;;0.20;;
12275;SDS011;6200;48.144;11.424;2023-03-03T12:44:46;0.20;;;0.20;;
12275;SDS011;6200;48.144;11.424;2023-03-03T12:47:40;0.20;;;0.20;;
12275;SDS011;6200;48.144;11.424;2023-03-03T12:50:33;0.20;;;0.20;;
12275;SDS011;6200;48.144;11.424;2023-03-03T12:56:48;0.20;;;0.20;;
12275;SDS011;6200;48.144;11.424;2023-03-03T12:59:24;0.30;;;0.30;;
12275;SDS011;6200;48.144;11.424;2023-03-03T13:15:20;0.20;;;0.20;;
12275;SDS011;6200;48.144;11.424;2023-03-03T13:20:44;0.20;;;0.20;;
12275;SDS011;6200;48.144;11.424;2023-03-03T13:23:20;0.20;;;0.20;;
12275;SDS011;6200;48.144;11.424;2023-03-03T13:26:06;0.30;;;0.30;;
12275;SDS011;6200;48.144;11.424;2023-03-03T13:28:55;0.20;;;0.20;;
12275;SDS011;6200;48.144;11.424;2023-03-03T13:31:45;0.20;;;0.20;;
12275;SDS011;6200;48.144;11.424;2023-03-03T13:34:19;0.20;;;0.20;;
12275;SDS011;6200;48.144;11.424;2023-03-03T13:37:34;0.20;;;0.20;;
12275;SDS011;6200;48.144;11.424;2023-03-03T13:39:56;0.20;;;0.20;;
12275;SDS011;6200;48.144;11.424;2023-03-03T13:42:43;0.30;;;0.30;;
12275;SDS011;6200;48.144;11.424;2023-03-03T13:48:14;0.23;;;0.23;;
12275;SDS011;6200;48.144;11.424;2023-03-03T14:02:37;0.20;;;0.20;;
12275;SDS011;6200;48.144;11.424;2023-03-03T14:05:14;0.20;;;0.20;;
12275;SDS011;6200;48.144;11.424;2023-03-03T14:07:47;0.20;;;0.20;;
12275;SDS011;6200;48.144;11.424;2023-03-03T14:10:31;0.23;;;0.23;;
12275;SDS011;6200;48.144;11.424;2023-03-03T14:13:10;0.20;;;0.20;;
12275;SDS011;6200;48.144;11.424;2023-03-03T14:15:43;0.20;;;0.20;;
12275;SDS011;6200;48.144;11.424;2023-03-03T14:18:35;0.20;;;0.20;;
12275;SDS011;6200;48.144;11.424;2023-03-03T14:21:10;0.20;;;0.20;;
12275;SDS011;6200;48.144;11.424;2023-03-03T14:23:47;0.20;;;0.20;;
12275;SDS011;6200;48.144;11.424;2023-03-03T14:26:14;0.20;;;0.20;;
12275;SDS011;6200;48.144;11.424;2023-03-03T14:28:46;0.20;;;0.20;;
12275;SDS011;6200;48.144;11.424;2023-03-03T14:31:56;0.20;;;0.20;;
12275;SDS011;6200;48.144;11.424;2023-03-03T14:36:48;0.20;;;0.20;;
12275;SDS011;6200;48.144;11.424;2023-03-03T14:39:29;0.20;;;0.20;;
12275;SDS011;6200;48.144;11.424;2023-03-03T14:42:05;0.20;;;0.20;;
12275;SDS011;6200;48.144;11.424;2023-03-03T14:44:47;0.30;;;0.30;;
12275;SDS011;6200;48.144;11.424;2023-03-03T14:47:19;0.20;;;0.20;;
12275;SDS011;6200;48.144;11.424;2023-03-03T14:49:47;0.20;;;0.20;;
12275;SDS011;6200;48.144;11.424;2023-03-03T14:54:39;0.20;;;0.20;;
12275;SDS011;6200;48.144;11.424;2023-03-03T14:59:57;0.20;;;0.20;;
12275;SDS011;6200;48.144;11.424;2023-03-03T15:02:34;0.30;;;0.30;;
12275;SDS011;6200;48.144;11.424;2023-03-03T15:07:56;0.30;;;0.30;;
12275;SDS011;6200;48.144;11.424;2023-03-03T15:12:57;0.20;;;0.20;;
12275;SDS011;6200;48.144;11.424;2023-03-03T15:15:32;0.30;;;0.30;;
12275;SDS011;6200;48.144;11.424;2023-03-03T15:17:58;0.20;;;0.20;;
12275;SDS011;6200;48.144;11.424;2023-03-03T15:28:54;0.20;;;0.20;;
12275;SDS011;6200;48.144;11.424;2023-03-03T15:31:30;0.20;;;0.20;;
12275;SDS011;6200;48.144;11.424;2023-03-03T15:34:18;0.20;;;0.20;;
12275;SDS011;6200;48.144;11.424;2023-03-03T15:48:23;0.30;;;0.30;;
12275;SDS011;6200;48.144;11.424;2023-03-03T16:05:55;0.20;;;0.20;;
12275;SDS011;6200;48.144;11.424;2023-03-03T16:08:18;0.20;;;0.20;;
12275;SDS011;6200;48.144;11.424;2023-03-03T16:13:45;0.30;;;0.30;;
12275;SDS011;6200;48.144;11.424;2023-03-03T16:16:32;0.30;;;0.30;;
12275;SDS011;6200;48.144;11.424;2023-03-03T16:19:16;0.27;;;0.27;;
12275;SDS011;6200;48.144;11.424;2023-03-03T16:21:58;0.20;;;0.20;;
12275;SDS011;6200;48.144;11.424;2023-03-03T16:24:53;0.20;;;0.20;;
12275;SDS011;6200;48.144;11.424;2023-03-03T16:27:24;0.20;;;0.20;;
12275;SDS011;6200;48.144;11.424;2023-03-03T16:32:55;0.23;;;0.23;;
12275;SDS011;6200;48.144;11.424;2023-03-03T16:44:11;0.20;;;0.20;;
12275;SDS011;6200;48.144;11.424;2023-03-03T16:46:44;0.20;;;0.20;;
12275;SDS011;6200;48.144;11.424;2023-03-03T16:49:26;0.20;;;0.20;;
12275;SDS011;6200;48.144;11.424;2023-03-03T16:52:13;0.20;;;0.20;;
12275;SDS011;6200;48.144;11.424;2023-03-03T17:00:43;0.20;;;0.20;;
12275;SDS011;6200;48.144;11.424;2023-03-03T17:06:12;0.20;;;0.20;;
12275;SDS011;6200;48.144;11.424;2023-03-03T17:09:08;0.20;;;0.20;;
12275;SDS011;6200;48.144;11.424;2023-03-03T17:17:53;0.30;;;0.30;;
12275;SDS011;6200;48.144;11.424;2023-03-03T17:22:42;0.20;;;0.20;;
12275;SDS011;6200;48.144;11.424;2023-03-03T17:31:04;0.30;;;0.30;;
12275;SDS011;6200;48.144;11.424;2023-03-03T17:36:30;0.27;;;0.27;;
12275;SDS011;6200;48.144;11.424;2023-03-03T17:42:04;0.30;;;0.30;;
12275;SDS011;6200;48.144;11.424;2023-03-03T17:47:42;0.20;;;0.20;;
12275;SDS011;6200;48.144;11.424;2023-03-03T17:50:13;0.40;;;0.40;;
12275;SDS011;6200;48.144;11.424;2023-03-03T17:58:05;0.20;;;0.20;;
12275;SDS011;6200;48.144;11.424;2023-03-03T18:00:59;0.30;;;0.30;;
12275;SDS011;6200;48.144;11.424;2023-03-03T18:03:31;0.27;;;0.27;;
12275;SDS011;6200;48.144;11.424;2023-03-03T18:06:18;0.37;;;0.37;;
12275;SDS011;6200;48.144;11.424;2023-03-03T18:09:06;0.20;;;0.20;;
12275;SDS011;6200;48.144;11.424;2023-03-03T18:23:39;0.30;;;0.30;;
12275;SDS011;6200;48.144;11.424;2023-03-03T18:31:43;0.40;;;0.40;;
12275;SDS011;6200;48.144;11.424;2023-03-03T18:34:33;0.40;;;0.40;;
12275;SDS011;6200;48.144;11.424;2023-03-03T18:40:15;0.30;;;0.30;;
12275;SDS011;6200;48.144;11.424;2023-03-03T18:42:43;0.40;;;0.40;;
12275;SDS011;6200;48.144;11.424;2023-03-03T18:45:45;0.30;;;0.30;;
12275;SDS011;6200;48.144;11.424;2023-03-03T18:48:06;0.30;;;0.30;;
12275;SDS011;6200;48.144;11.424;2023-03-03T18:50:46;0.37;;;0.37;;
12275;SDS011;6200;48.144;11.424;2023-03-03T18:53:26;0.30;;;0.30;;
12275;SDS011;6200;48.144;11.424;2023-03-03T18:55:57;0.30;;;0.30;;
12275;SDS011;6200;48.144;11.424;2023-03-03T18:58:43;0.30;;;0.30;;
12275;SDS011;6200;48.144;11.424;2023-03-03T19:04:08;0.40;;;0.40;;
12275;SDS011;6200;48.144;11.424;2023-03-03T19:09:03;0.30;;;0.30;;
12275;SDS011;6200;48.144;11.424;2023-03-03T19:11:35;0.37;;;0.37;;
12275;SDS011;6200;48.144;11.424;2023-03-03T19:16:52;0.50;;;0.50;;
12275;SDS011;6200;48.144;11.424;2023-03-03T19:19:37;0.40;;;0.40;;
12275;SDS011;6200;48.144;11.424;2023-03-03T19:22:26;0.30;;;0.30;;
12275;SDS011;6200;48.144;11.424;2023-03-03T19:25:11;0.37;;;0.37;;
12275;SDS011;6200;48.144;11.424;2023-03-03T19:31:00;0.30;;;0.30;;
12275;SDS011;6200;48.144;11.424;2023-03-03T19:36:13;0.40;;;0.40;;
12275;SDS011;6200;48.144;11.424;2023-03-03T19:39:26;0.30;;;0.30;;
12275;SDS011;6200;48.144;11.424;2023-03-03T19:41:53;0.30;;;0.30;;
12275;SDS011;6200;48.144;11.424;2023-03-03T19:50:17;0.40;;;0.40;;
12275;SDS011;6200;48.144;11.424;2023-03-03T19:52:58;0.40;;;0.40;;
12275;SDS011;6200;48.144;11.424;2023-03-03T19:56:08;0.40;;;0.40;;
12275;SDS011;6200;48.144;11.424;2023-03-03T19:58:39;0.40;;;0.40;;
12275;SDS011;6200;48.144;11.424;2023-03-03T20:01:27;0.40;;;0.40;;
12275;SDS011;6200;48.144;11.424;2023-03-03T20:04:18;0.40;;;0.40;;
12275;SDS011;6200;48.144;11.424;2023-03-03T20:09:59;0.40;;;0.40;;
12275;SDS011;6200;48.144;11.424;2023-03-03T20:18:22;0.50;;;0.50;;
12275;SDS011;6200;48.144;11.424;2023-03-03T20:21:15;0.50;;;0.50;;
12275;SDS011;6200;48.144;11.424;2023-03-03T20:47:02;0.50;;;0.50;;
12275;SDS011;6200;48.144;11.424;2023-03-03T20:49:45;0.40;;;0.40;;
12275;SDS011;6200;48.144;11.424;2023-03-03T20:55:23;0.40;;;0.40;;
12275;SDS011;6200;48.144;11.424;2023-03-03T20:58:05;0.33;;;0.33;;
12275;SDS011;6200;48.144;11.424;2023-03-03T21:03:34;0.40;;;0.40;;
12275;SDS011;6200;48.144;11.424;2023-03-03T21:06:05;0.50;;;0.50;;